sensor_id;sensor_type;location;lat;lon;timestamp;P1;durP1;ratioP1;P2;durP2;ratioP2
13279;SDS011;6708;49.814;8.652;2023-04-03T00:01:26;1.57;;;1.47;;
13279;SDS011;6708;49.814;8.652;2023-04-03T00:03:55;2.80;;;1.80;;
13279;SDS011;6708;49.814;8.652;2023-04-03T00:06:23;1.70;;;1.70;;
13279;SDS011;6708;49.814;8.652;2023-04-03T00:08:52;2.27;;;1.77;;
13279;SDS011;6708;49.814;8.652;2023-04-03T00:11:21;1.60;;;1.60;;
13279;SDS011;6708;49.814;8.652;2023-04-03T00:13:50;1.70;;;1.70;;
13279;SDS011;6708;49.814;8.652;2023-04-03T00:16:18;1.57;;;1.57;;
13279;SDS011;6708;49.814;8.652;2023-04-03T00:18:49;1.70;;;1.60;;
13279;SDS011;6708;49.814;8.652;2023-04-03T00:21:18;1.83;;;1.73;;
13279;SDS011;6708;49.814;8.652;2023-04-03T00:23:46;1.93;;;1.60;;
13279;SDS011;6708;49.814;8.652;2023-04-03T00:26:15;2.00;;;1.90;;
13279;SDS011;6708;49.814;8.652;2023-04-03T00:28:44;2.50;;;2.00;;
13279;SDS011;6708;49.814;8.652;2023-04-03T00:31:13;1.50;;;1.50;;
13279;SDS011;6708;49.814;8.652;2023-04-03T00:33:43;1.47;;;1.37;;
13279;SDS011;6708;49.814;8.652;2023-04-03T00:36:14;2.10;;;2.00;;
13279;SDS011;6708;49.814;8.652;2023-04-03T00:38:42;1.97;;;1.87;;
13279;SDS011;6708;49.814;8.652;2023-04-03T00:41:11;2.30;;;2.20;;
13279;SDS011;6708;49.814;8.652;2023-04-03T00:43:42;2.40;;;1.80;;
13279;SDS011;6708;49.814;8.652;2023-04-03T00:46:10;1.67;;;1.60;;
13279;SDS011;6708;49.814;8.652;2023-04-03T00:48:40;2.00;;;1.90;;
13279;SDS011;6708;49.814;8.652;2023-04-03T00:51:11;3.27;;;2.30;;
13279;SDS011;6708;49.814;8.652;2023-04-03T00:53:46;2.00;;;1.90;;
13279;SDS011;6708;49.814;8.652;2023-04-03T00:56:16;2.10;;;1.73;;
13279;SDS011;6708;49.814;8.652;2023-04-03T00:58:47;1.70;;;1.63;;
13279;SDS011;6708;49.814;8.652;2023-04-03T01:01:18;1.60;;;1.60;;
13279;SDS011;6708;49.814;8.652;2023-04-03T01:03:49;1.60;;;1.60;;
13279;SDS011;6708;49.814;8.652;2023-04-03T01:06:23;1.90;;;1.80;;
13279;SDS011;6708;49.814;8.652;2023-04-03T01:09:01;1.43;;;1.43;;
13279;SDS011;6708;49.814;8.652;2023-04-03T01:11:32;1.80;;;1.70;;
13279;SDS011;6708;49.814;8.652;2023-04-03T01:14:01;2.13;;;2.03;;
13279;SDS011;6708;49.814;8.652;2023-04-03T01:16:31;3.73;;;1.90;;
13279;SDS011;6708;49.814;8.652;2023-04-03T01:18:59;1.40;;;1.40;;
13279;SDS011;6708;49.814;8.652;2023-04-03T01:21:41;2.07;;;1.97;;
13279;SDS011;6708;49.814;8.652;2023-04-03T01:24:27;1.90;;;1.80;;
13279;SDS011;6708;49.814;8.652;2023-04-03T01:27:04;1.93;;;1.83;;
13279;SDS011;6708;49.814;8.652;2023-04-03T01:29:33;2.47;;;2.27;;
13279;SDS011;6708;49.814;8.652;2023-04-03T01:32:05;2.10;;;1.93;;
13279;SDS011;6708;49.814;8.652;2023-04-03T01:34:35;2.50;;;2.00;;
13279;SDS011;6708;49.814;8.652;2023-04-03T01:37:04;2.27;;;2.17;;
13279;SDS011;6708;49.814;8.652;2023-04-03T01:39:33;2.60;;;2.10;;
13279;SDS011;6708;49.814;8.652;2023-04-03T01:42:01;2.27;;;2.03;;
13279;SDS011;6708;49.814;8.652;2023-04-03T01:44:34;1.70;;;1.60;;
13279;SDS011;6708;49.814;8.652;2023-04-03T01:47:05;1.73;;;1.70;;
13279;SDS011;6708;49.814;8.652;2023-04-03T01:49:34;1.70;;;1.70;;
13279;SDS011;6708;49.814;8.652;2023-04-03T01:52:03;2.07;;;1.97;;
13279;SDS011;6708;49.814;8.652;2023-04-03T01:54:31;2.00;;;1.90;;
13279;SDS011;6708;49.814;8.652;2023-04-03T01:57:00;1.63;;;1.63;;
13279;SDS011;6708;49.814;8.652;2023-04-03T01:59:29;1.57;;;1.57;;
13279;SDS011;6708;49.814;8.652;2023-04-03T02:01:57;3.40;;;1.90;;
13279;SDS011;6708;49.814;8.652;2023-04-03T02:04:29;2.63;;;2.43;;
13279;SDS011;6708;49.814;8.652;2023-04-03T02:06:57;2.60;;;2.40;;
13279;SDS011;6708;49.814;8.652;2023-04-03T02:09:25;2.27;;;2.17;;
13279;SDS011;6708;49.814;8.652;2023-04-03T02:11:54;4.10;;;2.80;;
13279;SDS011;6708;49.814;8.652;2023-04-03T02:14:22;2.47;;;2.27;;
13279;SDS011;6708;49.814;8.652;2023-04-03T02:16:52;2.17;;;1.97;;
13279;SDS011;6708;49.814;8.652;2023-04-03T02:19:21;2.37;;;2.27;;
13279;SDS011;6708;49.814;8.652;2023-04-03T02:21:52;2.30;;;2.20;;
13279;SDS011;6708;49.814;8.652;2023-04-03T02:24:21;1.53;;;1.53;;
13279;SDS011;6708;49.814;8.652;2023-04-03T02:26:49;1.90;;;1.80;;
13279;SDS011;6708;49.814;8.652;2023-04-03T02:29:18;1.80;;;1.73;;
13279;SDS011;6708;49.814;8.652;2023-04-03T02:31:47;2.10;;;2.00;;
13279;SDS011;6708;49.814;8.652;2023-04-03T02:34:15;2.30;;;2.10;;
13279;SDS011;6708;49.814;8.652;2023-04-03T02:36:45;2.10;;;2.00;;
13279;SDS011;6708;49.814;8.652;2023-04-03T02:39:17;1.90;;;1.80;;
13279;SDS011;6708;49.814;8.652;2023-04-03T02:41:47;2.17;;;2.07;;
13279;SDS011;6708;49.814;8.652;2023-04-03T02:44:21;1.97;;;1.87;;
13279;SDS011;6708;49.814;8.652;2023-04-03T02:46:49;1.80;;;1.70;;
13279;SDS011;6708;49.814;8.652;2023-04-03T02:49:18;1.90;;;1.80;;
13279;SDS011;6708;49.814;8.652;2023-04-03T02:51:46;2.10;;;2.00;;
13279;SDS011;6708;49.814;8.652;2023-04-03T02:54:19;1.70;;;1.70;;
13279;SDS011;6708;49.814;8.652;2023-04-03T02:56:52;2.10;;;2.00;;
13279;SDS011;6708;49.814;8.652;2023-04-03T02:59:20;1.87;;;1.77;;
13279;SDS011;6708;49.814;8.652;2023-04-03T03:01:49;3.10;;;2.90;;
13279;SDS011;6708;49.814;8.652;2023-04-03T03:04:17;2.40;;;2.30;;
13279;SDS011;6708;49.814;8.652;2023-04-03T03:06:46;2.37;;;2.17;;
13279;SDS011;6708;49.814;8.652;2023-04-03T03:09:15;2.03;;;1.93;;
13279;SDS011;6708;49.814;8.652;2023-04-03T03:11:47;2.60;;;2.40;;
13279;SDS011;6708;49.814;8.652;2023-04-03T03:14:15;1.80;;;1.80;;
13279;SDS011;6708;49.814;8.652;2023-04-03T03:16:44;3.03;;;1.80;;
13279;SDS011;6708;49.814;8.652;2023-04-03T03:19:12;2.30;;;2.20;;
13279;SDS011;6708;49.814;8.652;2023-04-03T03:21:41;3.77;;;2.17;;
13279;SDS011;6708;49.814;8.652;2023-04-03T03:24:11;2.20;;;2.10;;
13279;SDS011;6708;49.814;8.652;2023-04-03T03:26:43;2.13;;;2.03;;
13279;SDS011;6708;49.814;8.652;2023-04-03T03:29:12;1.83;;;1.77;;
13279;SDS011;6708;49.814;8.652;2023-04-03T03:31:43;2.13;;;2.03;;
13279;SDS011;6708;49.814;8.652;2023-04-03T03:34:14;2.10;;;2.00;;
13279;SDS011;6708;49.814;8.652;2023-04-03T03:36:42;2.20;;;2.10;;
13279;SDS011;6708;49.814;8.652;2023-04-03T03:39:12;2.20;;;2.03;;
13279;SDS011;6708;49.814;8.652;2023-04-03T03:41:46;1.80;;;1.70;;
13279;SDS011;6708;49.814;8.652;2023-04-03T03:44:15;1.90;;;1.80;;
13279;SDS011;6708;49.814;8.652;2023-04-03T03:46:43;2.00;;;1.90;;
13279;SDS011;6708;49.814;8.652;2023-04-03T03:49:12;1.87;;;1.77;;
13279;SDS011;6708;49.814;8.652;2023-04-03T03:51:41;1.53;;;1.53;;
13279;SDS011;6708;49.814;8.652;2023-04-03T03:54:11;1.90;;;1.80;;
13279;SDS011;6708;49.814;8.652;2023-04-03T03:56:39;1.90;;;1.80;;
13279;SDS011;6708;49.814;8.652;2023-04-03T03:59:11;1.90;;;1.80;;
13279;SDS011;6708;49.814;8.652;2023-04-03T04:01:40;3.60;;;1.80;;
13279;SDS011;6708;49.814;8.652;2023-04-03T04:04:10;1.77;;;1.67;;
13279;SDS011;6708;49.814;8.652;2023-04-03T04:06:41;2.13;;;1.97;;
13279;SDS011;6708;49.814;8.652;2023-04-03T04:09:11;2.43;;;2.23;;
13279;SDS011;6708;49.814;8.652;2023-04-03T04:11:40;2.07;;;1.97;;
13279;SDS011;6708;49.814;8.652;2023-04-03T04:14:13;2.43;;;2.30;;
13279;SDS011;6708;49.814;8.652;2023-04-03T04:16:42;2.13;;;1.90;;
13279;SDS011;6708;49.814;8.652;2023-04-03T04:19:18;2.30;;;2.00;;
13279;SDS011;6708;49.814;8.652;2023-04-03T04:21:46;1.90;;;1.80;;
13279;SDS011;6708;49.814;8.652;2023-04-03T04:24:15;2.10;;;2.00;;
13279;SDS011;6708;49.814;8.652;2023-04-03T04:26:45;2.07;;;1.93;;
13279;SDS011;6708;49.814;8.652;2023-04-03T04:29:18;2.10;;;2.00;;
13279;SDS011;6708;49.814;8.652;2023-04-03T04:31:54;1.73;;;1.63;;
13279;SDS011;6708;49.814;8.652;2023-04-03T04:34:23;2.60;;;2.07;;
13279;SDS011;6708;49.814;8.652;2023-04-03T04:36:52;2.83;;;1.90;;
13279;SDS011;6708;49.814;8.652;2023-04-03T04:39:20;1.63;;;1.63;;
13279;SDS011;6708;49.814;8.652;2023-04-03T04:41:49;4.70;;;2.20;;
13279;SDS011;6708;49.814;8.652;2023-04-03T04:44:23;2.20;;;2.10;;
13279;SDS011;6708;49.814;8.652;2023-04-03T04:46:52;2.27;;;2.17;;
13279;SDS011;6708;49.814;8.652;2023-04-03T04:49:21;2.67;;;2.47;;
13279;SDS011;6708;49.814;8.652;2023-04-03T04:51:51;2.90;;;2.10;;
13279;SDS011;6708;49.814;8.652;2023-04-03T04:54:26;2.17;;;2.07;;
13279;SDS011;6708;49.814;8.652;2023-04-03T04:56:56;1.93;;;1.83;;
13279;SDS011;6708;49.814;8.652;2023-04-03T04:59:28;1.43;;;1.43;;
13279;SDS011;6708;49.814;8.652;2023-04-03T05:01:57;1.97;;;1.87;;
13279;SDS011;6708;49.814;8.652;2023-04-03T05:04:26;1.77;;;1.67;;
13279;SDS011;6708;49.814;8.652;2023-04-03T05:07:02;2.20;;;2.10;;
13279;SDS011;6708;49.814;8.652;2023-04-03T05:09:34;2.30;;;2.10;;
13279;SDS011;6708;49.814;8.652;2023-04-03T05:12:02;2.03;;;1.93;;
13279;SDS011;6708;49.814;8.652;2023-04-03T05:14:40;1.83;;;1.83;;
13279;SDS011;6708;49.814;8.652;2023-04-03T05:17:21;2.30;;;2.00;;
13279;SDS011;6708;49.814;8.652;2023-04-03T05:19:53;2.37;;;2.17;;
13279;SDS011;6708;49.814;8.652;2023-04-03T05:22:22;2.27;;;2.10;;
13279;SDS011;6708;49.814;8.652;2023-04-03T05:24:54;1.47;;;1.47;;
13279;SDS011;6708;49.814;8.652;2023-04-03T05:27:22;3.00;;;2.13;;
13279;SDS011;6708;49.814;8.652;2023-04-03T05:29:54;1.80;;;1.70;;
13279;SDS011;6708;49.814;8.652;2023-04-03T05:32:26;2.20;;;2.10;;
13279;SDS011;6708;49.814;8.652;2023-04-03T05:35:08;1.90;;;1.80;;
13279;SDS011;6708;49.814;8.652;2023-04-03T05:37:38;1.87;;;1.70;;
13279;SDS011;6708;49.814;8.652;2023-04-03T05:40:07;1.77;;;1.73;;
13279;SDS011;6708;49.814;8.652;2023-04-03T05:42:40;5.17;;;1.67;;
13279;SDS011;6708;49.814;8.652;2023-04-03T05:45:08;53.00;;;7.20;;
13279;SDS011;6708;49.814;8.652;2023-04-03T05:47:40;2.47;;;2.00;;
13279;SDS011;6708;49.814;8.652;2023-04-03T05:50:09;2.40;;;1.90;;
13279;SDS011;6708;49.814;8.652;2023-04-03T05:52:40;1.87;;;1.77;;
13279;SDS011;6708;49.814;8.652;2023-04-03T05:55:13;4.93;;;1.90;;
13279;SDS011;6708;49.814;8.652;2023-04-03T05:57:41;1.53;;;1.43;;
13279;SDS011;6708;49.814;8.652;2023-04-03T06:00:12;2.10;;;1.97;;
13279;SDS011;6708;49.814;8.652;2023-04-03T06:02:50;2.07;;;1.97;;
13279;SDS011;6708;49.814;8.652;2023-04-03T06:05:22;3.60;;;2.03;;
13279;SDS011;6708;49.814;8.652;2023-04-03T06:07:50;2.00;;;1.90;;
13279;SDS011;6708;49.814;8.652;2023-04-03T06:10:19;1.90;;;1.73;;
13279;SDS011;6708;49.814;8.652;2023-04-03T06:12:48;2.17;;;1.97;;
13279;SDS011;6708;49.814;8.652;2023-04-03T06:15:17;2.13;;;2.00;;
13279;SDS011;6708;49.814;8.652;2023-04-03T06:17:45;2.37;;;1.63;;
13279;SDS011;6708;49.814;8.652;2023-04-03T06:20:16;1.70;;;1.60;;
13279;SDS011;6708;49.814;8.652;2023-04-03T06:22:45;4.40;;;2.20;;
13279;SDS011;6708;49.814;8.652;2023-04-03T06:25:14;3.00;;;2.00;;
13279;SDS011;6708;49.814;8.652;2023-04-03T06:27:43;5.83;;;1.53;;
13279;SDS011;6708;49.814;8.652;2023-04-03T06:30:12;3.10;;;2.00;;
13279;SDS011;6708;49.814;8.652;2023-04-03T06:32:41;2.87;;;1.47;;
13279;SDS011;6708;49.814;8.652;2023-04-03T06:35:09;1.80;;;1.70;;
13279;SDS011;6708;49.814;8.652;2023-04-03T06:37:40;3.80;;;1.30;;
13279;SDS011;6708;49.814;8.652;2023-04-03T06:40:10;1.60;;;1.37;;
13279;SDS011;6708;49.814;8.652;2023-04-03T06:42:43;1.63;;;1.50;;
13279;SDS011;6708;49.814;8.652;2023-04-03T06:45:12;4.03;;;1.73;;
13279;SDS011;6708;49.814;8.652;2023-04-03T06:47:40;1.60;;;1.50;;
13279;SDS011;6708;49.814;8.652;2023-04-03T06:50:09;1.77;;;1.40;;
13279;SDS011;6708;49.814;8.652;2023-04-03T06:52:41;2.20;;;1.20;;
13279;SDS011;6708;49.814;8.652;2023-04-03T06:55:10;3.87;;;1.03;;
13279;SDS011;6708;49.814;8.652;2023-04-03T06:57:38;2.83;;;1.33;;
13279;SDS011;6708;49.814;8.652;2023-04-03T07:00:07;1.03;;;0.97;;
13279;SDS011;6708;49.814;8.652;2023-04-03T07:02:37;1.00;;;1.00;;
13279;SDS011;6708;49.814;8.652;2023-04-03T07:05:06;1.40;;;1.23;;
13279;SDS011;6708;49.814;8.652;2023-04-03T07:07:35;1.27;;;1.10;;
13279;SDS011;6708;49.814;8.652;2023-04-03T07:10:07;1.40;;;1.30;;
13279;SDS011;6708;49.814;8.652;2023-04-03T07:12:36;2.33;;;1.23;;
13279;SDS011;6708;49.814;8.652;2023-04-03T07:15:05;1.83;;;1.33;;
13279;SDS011;6708;49.814;8.652;2023-04-03T07:17:34;1.30;;;1.27;;
13279;SDS011;6708;49.814;8.652;2023-04-03T07:20:04;2.43;;;1.47;;
13279;SDS011;6708;49.814;8.652;2023-04-03T07:22:33;0.90;;;0.90;;
13279;SDS011;6708;49.814;8.652;2023-04-03T07:25:01;1.67;;;1.10;;
13279;SDS011;6708;49.814;8.652;2023-04-03T07:27:34;1.10;;;0.97;;
13279;SDS011;6708;49.814;8.652;2023-04-03T07:30:03;1.10;;;1.00;;
13279;SDS011;6708;49.814;8.652;2023-04-03T07:32:33;2.20;;;1.27;;
13279;SDS011;6708;49.814;8.652;2023-04-03T07:35:01;1.10;;;1.10;;
13279;SDS011;6708;49.814;8.652;2023-04-03T07:37:30;1.47;;;1.07;;
13279;SDS011;6708;49.814;8.652;2023-04-03T07:39:58;1.00;;;1.00;;
13279;SDS011;6708;49.814;8.652;2023-04-03T07:42:28;7.37;;;1.73;;
13279;SDS011;6708;49.814;8.652;2023-04-03T07:44:59;1.90;;;1.30;;
13279;SDS011;6708;49.814;8.652;2023-04-03T07:47:28;1.27;;;1.13;;
13279;SDS011;6708;49.814;8.652;2023-04-03T07:49:56;3.27;;;1.30;;
13279;SDS011;6708;49.814;8.652;2023-04-03T07:52:24;2.50;;;1.30;;
13279;SDS011;6708;49.814;8.652;2023-04-03T07:54:53;1.63;;;0.97;;
13279;SDS011;6708;49.814;8.652;2023-04-03T07:57:21;1.10;;;1.00;;
13279;SDS011;6708;49.814;8.652;2023-04-03T07:59:49;1.97;;;1.30;;
13279;SDS011;6708;49.814;8.652;2023-04-03T08:02:21;1.97;;;1.23;;
13279;SDS011;6708;49.814;8.652;2023-04-03T08:04:49;1.50;;;1.40;;
13279;SDS011;6708;49.814;8.652;2023-04-03T08:07:18;1.27;;;1.03;;
13279;SDS011;6708;49.814;8.652;2023-04-03T08:09:46;1.83;;;1.20;;
13279;SDS011;6708;49.814;8.652;2023-04-03T08:12:15;2.60;;;1.10;;
13279;SDS011;6708;49.814;8.652;2023-04-03T08:14:43;0.93;;;0.93;;
13279;SDS011;6708;49.814;8.652;2023-04-03T08:17:11;1.13;;;1.10;;
13279;SDS011;6708;49.814;8.652;2023-04-03T08:19:42;1.00;;;0.87;;
13279;SDS011;6708;49.814;8.652;2023-04-03T08:22:11;1.40;;;1.30;;
13279;SDS011;6708;49.814;8.652;2023-04-03T08:24:39;1.73;;;0.97;;
13279;SDS011;6708;49.814;8.652;2023-04-03T08:27:08;2.43;;;1.43;;
13279;SDS011;6708;49.814;8.652;2023-04-03T08:29:36;3.23;;;1.20;;
13279;SDS011;6708;49.814;8.652;2023-04-03T08:32:05;2.37;;;1.30;;
13279;SDS011;6708;49.814;8.652;2023-04-03T08:34:33;1.47;;;1.20;;
13279;SDS011;6708;49.814;8.652;2023-04-03T08:37:07;1.43;;;1.33;;
13279;SDS011;6708;49.814;8.652;2023-04-03T08:39:36;2.03;;;0.97;;
13279;SDS011;6708;49.814;8.652;2023-04-03T08:42:05;5.10;;;1.23;;
13279;SDS011;6708;49.814;8.652;2023-04-03T08:44:38;2.67;;;1.37;;
13279;SDS011;6708;49.814;8.652;2023-04-03T08:47:11;1.20;;;1.10;;
13279;SDS011;6708;49.814;8.652;2023-04-03T08:49:47;0.80;;;0.80;;
13279;SDS011;6708;49.814;8.652;2023-04-03T08:52:22;1.73;;;1.50;;
13279;SDS011;6708;49.814;8.652;2023-04-03T08:54:53;2.43;;;1.00;;
13279;SDS011;6708;49.814;8.652;2023-04-03T08:57:26;3.13;;;1.37;;
13279;SDS011;6708;49.814;8.652;2023-04-03T08:59:58;2.13;;;1.20;;
13279;SDS011;6708;49.814;8.652;2023-04-03T09:02:31;3.37;;;1.70;;
13279;SDS011;6708;49.814;8.652;2023-04-03T09:05:01;2.13;;;1.43;;
13279;SDS011;6708;49.814;8.652;2023-04-03T09:07:38;1.10;;;1.10;;
13279;SDS011;6708;49.814;8.652;2023-04-03T09:10:10;3.00;;;1.20;;
13279;SDS011;6708;49.814;8.652;2023-04-03T09:12:41;1.13;;;1.13;;
13279;SDS011;6708;49.814;8.652;2023-04-03T09:15:15;1.13;;;0.90;;
13279;SDS011;6708;49.814;8.652;2023-04-03T09:17:49;2.27;;;1.13;;
13279;SDS011;6708;49.814;8.652;2023-04-03T09:20:24;0.97;;;0.87;;
13279;SDS011;6708;49.814;8.652;2023-04-03T09:22:56;1.00;;;1.00;;
13279;SDS011;6708;49.814;8.652;2023-04-03T09:25:25;1.17;;;0.97;;
13279;SDS011;6708;49.814;8.652;2023-04-03T09:27:55;2.60;;;0.90;;
13279;SDS011;6708;49.814;8.652;2023-04-03T09:30:25;2.47;;;1.30;;
13279;SDS011;6708;49.814;8.652;2023-04-03T09:32:54;0.93;;;0.93;;
13279;SDS011;6708;49.814;8.652;2023-04-03T09:35:24;1.13;;;1.00;;
13279;SDS011;6708;49.814;8.652;2023-04-03T09:37:55;1.97;;;1.10;;
13279;SDS011;6708;49.814;8.652;2023-04-03T09:40:31;0.70;;;0.70;;
13279;SDS011;6708;49.814;8.652;2023-04-03T09:45:48;2.00;;;1.07;;
13279;SDS011;6708;49.814;8.652;2023-04-03T09:48:18;1.70;;;0.90;;
13279;SDS011;6708;49.814;8.652;2023-04-03T09:50:55;1.10;;;1.00;;
13279;SDS011;6708;49.814;8.652;2023-04-03T09:53:29;0.90;;;0.90;;
13279;SDS011;6708;49.814;8.652;2023-04-03T09:56:03;2.50;;;0.63;;
13279;SDS011;6708;49.814;8.652;2023-04-03T09:58:38;4.70;;;0.77;;
13279;SDS011;6708;49.814;8.652;2023-04-03T10:01:09;1.13;;;0.83;;
13279;SDS011;6708;49.814;8.652;2023-04-03T10:04:01;1.73;;;0.70;;
13279;SDS011;6708;49.814;8.652;2023-04-03T10:06:33;1.30;;;1.00;;
13279;SDS011;6708;49.814;8.652;2023-04-03T10:09:23;2.17;;;0.90;;
13279;SDS011;6708;49.814;8.652;2023-04-03T10:11:59;1.33;;;0.90;;
13279;SDS011;6708;49.814;8.652;2023-04-03T10:14:29;0.90;;;0.90;;
13279;SDS011;6708;49.814;8.652;2023-04-03T10:17:00;1.20;;;1.17;;
13279;SDS011;6708;49.814;8.652;2023-04-03T10:19:35;2.27;;;1.20;;
13279;SDS011;6708;49.814;8.652;2023-04-03T10:22:14;1.10;;;0.97;;
13279;SDS011;6708;49.814;8.652;2023-04-03T10:24:57;1.30;;;0.80;;
13279;SDS011;6708;49.814;8.652;2023-04-03T10:27:32;1.27;;;1.20;;
13279;SDS011;6708;49.814;8.652;2023-04-03T10:30:15;0.63;;;0.63;;
13279;SDS011;6708;49.814;8.652;2023-04-03T10:32:59;1.83;;;0.90;;
13279;SDS011;6708;49.814;8.652;2023-04-03T10:35:39;1.40;;;1.07;;
13279;SDS011;6708;49.814;8.652;2023-04-03T10:38:15;1.67;;;1.00;;
13279;SDS011;6708;49.814;8.652;2023-04-03T10:40:50;1.17;;;1.17;;
13279;SDS011;6708;49.814;8.652;2023-04-03T10:43:21;0.80;;;0.80;;
13279;SDS011;6708;49.814;8.652;2023-04-03T10:45:57;3.37;;;1.13;;
13279;SDS011;6708;49.814;8.652;2023-04-03T10:48:44;1.77;;;1.10;;
13279;SDS011;6708;49.814;8.652;2023-04-03T10:51:24;2.03;;;1.17;;
13279;SDS011;6708;49.814;8.652;2023-04-03T10:53:56;1.07;;;0.73;;
13279;SDS011;6708;49.814;8.652;2023-04-03T10:56:31;2.37;;;1.13;;
13279;SDS011;6708;49.814;8.652;2023-04-03T10:59:02;1.37;;;0.80;;
13279;SDS011;6708;49.814;8.652;2023-04-03T11:01:46;1.03;;;1.03;;
13279;SDS011;6708;49.814;8.652;2023-04-03T11:04:16;3.27;;;1.23;;
13279;SDS011;6708;49.814;8.652;2023-04-03T11:06:48;1.00;;;1.00;;
13279;SDS011;6708;49.814;8.652;2023-04-03T11:09:21;3.97;;;1.37;;
13279;SDS011;6708;49.814;8.652;2023-04-03T11:11:55;4.00;;;1.20;;
13279;SDS011;6708;49.814;8.652;2023-04-03T11:14:26;1.10;;;1.10;;
13279;SDS011;6708;49.814;8.652;2023-04-03T11:17:01;1.77;;;1.20;;
13279;SDS011;6708;49.814;8.652;2023-04-03T11:19:34;1.33;;;1.17;;
13279;SDS011;6708;49.814;8.652;2023-04-03T11:22:08;1.67;;;1.03;;
13279;SDS011;6708;49.814;8.652;2023-04-03T11:24:39;1.37;;;0.77;;
13279;SDS011;6708;49.814;8.652;2023-04-03T11:27:15;1.10;;;1.00;;
13279;SDS011;6708;49.814;8.652;2023-04-03T11:29:47;2.57;;;1.20;;
13279;SDS011;6708;49.814;8.652;2023-04-03T11:32:29;4.20;;;1.00;;
13279;SDS011;6708;49.814;8.652;2023-04-03T11:35:11;2.50;;;1.00;;
13279;SDS011;6708;49.814;8.652;2023-04-03T11:37:40;1.20;;;1.07;;
13279;SDS011;6708;49.814;8.652;2023-04-03T11:40:18;1.03;;;0.90;;
13279;SDS011;6708;49.814;8.652;2023-04-03T11:42:54;1.53;;;1.37;;
13279;SDS011;6708;49.814;8.652;2023-04-03T11:45:32;2.00;;;1.20;;
13279;SDS011;6708;49.814;8.652;2023-04-03T11:48:03;1.40;;;0.90;;
13279;SDS011;6708;49.814;8.652;2023-04-03T11:50:40;4.50;;;0.97;;
13279;SDS011;6708;49.814;8.652;2023-04-03T11:55:55;1.47;;;1.33;;
13279;SDS011;6708;49.814;8.652;2023-04-03T11:58:31;1.90;;;1.23;;
13279;SDS011;6708;49.814;8.652;2023-04-03T12:01:01;1.10;;;1.10;;
13279;SDS011;6708;49.814;8.652;2023-04-03T12:12:31;1.30;;;0.70;;
13279;SDS011;6708;49.814;8.652;2023-04-03T12:15:16;0.93;;;0.70;;
13279;SDS011;6708;49.814;8.652;2023-04-03T12:17:47;2.23;;;1.13;;
13279;SDS011;6708;49.814;8.652;2023-04-03T12:23:25;0.90;;;0.90;;
13279;SDS011;6708;49.814;8.652;2023-04-03T12:25:59;1.33;;;0.90;;
13279;SDS011;6708;49.814;8.652;2023-04-03T12:28:38;1.37;;;1.03;;
13279;SDS011;6708;49.814;8.652;2023-04-03T12:31:10;1.10;;;0.90;;
13279;SDS011;6708;49.814;8.652;2023-04-03T12:33:47;0.90;;;0.90;;
13279;SDS011;6708;49.814;8.652;2023-04-03T12:36:36;1.30;;;1.13;;
13279;SDS011;6708;49.814;8.652;2023-04-03T12:39:13;0.70;;;0.70;;
13279;SDS011;6708;49.814;8.652;2023-04-03T12:41:48;1.10;;;1.10;;
13279;SDS011;6708;49.814;8.652;2023-04-03T12:44:23;1.50;;;0.90;;
13279;SDS011;6708;49.814;8.652;2023-04-03T12:47:15;2.00;;;0.83;;
13279;SDS011;6708;49.814;8.652;2023-04-03T12:49:51;2.10;;;1.20;;
13279;SDS011;6708;49.814;8.652;2023-04-03T12:52:23;2.73;;;1.07;;
13279;SDS011;6708;49.814;8.652;2023-04-03T12:54:58;4.90;;;1.10;;
13279;SDS011;6708;49.814;8.652;2023-04-03T12:57:29;0.87;;;0.87;;
13279;SDS011;6708;49.814;8.652;2023-04-03T12:59:58;1.10;;;0.93;;
13279;SDS011;6708;49.814;8.652;2023-04-03T13:02:31;0.87;;;0.87;;
13279;SDS011;6708;49.814;8.652;2023-04-03T13:05:04;0.93;;;0.93;;
13279;SDS011;6708;49.814;8.652;2023-04-03T13:07:34;1.00;;;1.00;;
13279;SDS011;6708;49.814;8.652;2023-04-03T13:10:14;3.43;;;0.97;;
13279;SDS011;6708;49.814;8.652;2023-04-03T13:12:47;1.00;;;0.90;;
13279;SDS011;6708;49.814;8.652;2023-04-03T13:15:18;2.67;;;1.17;;
13279;SDS011;6708;49.814;8.652;2023-04-03T13:17:51;0.97;;;0.97;;
13279;SDS011;6708;49.814;8.652;2023-04-03T13:20:22;1.43;;;1.03;;
13279;SDS011;6708;49.814;8.652;2023-04-03T13:22:54;1.80;;;1.00;;
13279;SDS011;6708;49.814;8.652;2023-04-03T13:25:26;1.93;;;1.00;;
13279;SDS011;6708;49.814;8.652;2023-04-03T13:27:56;1.43;;;0.80;;
13279;SDS011;6708;49.814;8.652;2023-04-03T13:30:27;2.13;;;1.23;;
13279;SDS011;6708;49.814;8.652;2023-04-03T13:33:00;0.93;;;0.93;;
13279;SDS011;6708;49.814;8.652;2023-04-03T13:35:32;1.70;;;0.97;;
13279;SDS011;6708;49.814;8.652;2023-04-03T13:38:05;2.90;;;0.90;;
13279;SDS011;6708;49.814;8.652;2023-04-03T13:40:46;1.50;;;0.87;;
13279;SDS011;6708;49.814;8.652;2023-04-03T13:43:17;1.03;;;1.03;;
13279;SDS011;6708;49.814;8.652;2023-04-03T13:45:54;0.87;;;0.87;;
13279;SDS011;6708;49.814;8.652;2023-04-03T13:48:27;1.10;;;1.00;;
13279;SDS011;6708;49.814;8.652;2023-04-03T13:51:04;1.00;;;1.00;;
13279;SDS011;6708;49.814;8.652;2023-04-03T13:53:42;0.77;;;0.60;;
13279;SDS011;6708;49.814;8.652;2023-04-03T13:56:16;1.07;;;1.07;;
13279;SDS011;6708;49.814;8.652;2023-04-03T13:58:53;1.63;;;0.83;;
13279;SDS011;6708;49.814;8.652;2023-04-03T14:01:24;0.93;;;0.93;;
13279;SDS011;6708;49.814;8.652;2023-04-03T14:03:56;0.77;;;0.77;;
13279;SDS011;6708;49.814;8.652;2023-04-03T14:06:26;2.03;;;0.90;;
13279;SDS011;6708;49.814;8.652;2023-04-03T14:08:55;1.10;;;1.07;;
13279;SDS011;6708;49.814;8.652;2023-04-03T14:11:24;1.03;;;0.90;;
13279;SDS011;6708;49.814;8.652;2023-04-03T14:13:55;2.33;;;1.03;;
13279;SDS011;6708;49.814;8.652;2023-04-03T14:16:25;1.17;;;0.90;;
13279;SDS011;6708;49.814;8.652;2023-04-03T14:18:59;0.80;;;0.80;;
13279;SDS011;6708;49.814;8.652;2023-04-03T14:21:27;1.30;;;0.90;;
13279;SDS011;6708;49.814;8.652;2023-04-03T14:23:55;0.77;;;0.77;;
13279;SDS011;6708;49.814;8.652;2023-04-03T14:26:24;1.53;;;1.40;;
13279;SDS011;6708;49.814;8.652;2023-04-03T14:28:53;1.20;;;1.00;;
13279;SDS011;6708;49.814;8.652;2023-04-03T14:31:22;0.60;;;0.60;;
13279;SDS011;6708;49.814;8.652;2023-04-03T14:33:51;2.00;;;1.13;;
13279;SDS011;6708;49.814;8.652;2023-04-03T14:36:23;2.07;;;0.90;;
13279;SDS011;6708;49.814;8.652;2023-04-03T14:38:53;0.80;;;0.80;;
13279;SDS011;6708;49.814;8.652;2023-04-03T14:41:23;3.97;;;1.10;;
13279;SDS011;6708;49.814;8.652;2023-04-03T14:43:53;1.77;;;0.90;;
13279;SDS011;6708;49.814;8.652;2023-04-03T14:46:22;2.53;;;0.87;;
13279;SDS011;6708;49.814;8.652;2023-04-03T14:48:54;1.90;;;0.90;;
13279;SDS011;6708;49.814;8.652;2023-04-03T14:51:25;1.00;;;0.97;;
13279;SDS011;6708;49.814;8.652;2023-04-03T14:53:53;0.80;;;0.80;;
13279;SDS011;6708;49.814;8.652;2023-04-03T14:56:23;1.17;;;1.07;;
13279;SDS011;6708;49.814;8.652;2023-04-03T14:58:54;1.53;;;1.00;;
13279;SDS011;6708;49.814;8.652;2023-04-03T15:01:23;0.93;;;0.93;;
13279;SDS011;6708;49.814;8.652;2023-04-03T15:03:52;1.10;;;0.93;;
13279;SDS011;6708;49.814;8.652;2023-04-03T15:06:20;0.93;;;0.93;;
13279;SDS011;6708;49.814;8.652;2023-04-03T15:08:51;1.30;;;1.20;;
13279;SDS011;6708;49.814;8.652;2023-04-03T15:11:20;0.80;;;0.80;;
13279;SDS011;6708;49.814;8.652;2023-04-03T15:13:48;1.07;;;0.97;;
13279;SDS011;6708;49.814;8.652;2023-04-03T15:16:17;1.00;;;1.00;;
13279;SDS011;6708;49.814;8.652;2023-04-03T15:18:46;2.10;;;1.40;;
13279;SDS011;6708;49.814;8.652;2023-04-03T15:21:15;1.27;;;0.97;;
13279;SDS011;6708;49.814;8.652;2023-04-03T15:23:43;3.10;;;0.93;;
13279;SDS011;6708;49.814;8.652;2023-04-03T15:26:14;2.50;;;1.17;;
13279;SDS011;6708;49.814;8.652;2023-04-03T15:28:43;1.17;;;1.17;;
13279;SDS011;6708;49.814;8.652;2023-04-03T15:31:12;2.53;;;1.70;;
13279;SDS011;6708;49.814;8.652;2023-04-03T15:33:41;1.23;;;1.23;;
13279;SDS011;6708;49.814;8.652;2023-04-03T15:36:09;1.63;;;1.17;;
13279;SDS011;6708;49.814;8.652;2023-04-03T15:38:38;0.87;;;0.67;;
13279;SDS011;6708;49.814;8.652;2023-04-03T15:41:06;1.03;;;1.03;;
13279;SDS011;6708;49.814;8.652;2023-04-03T15:43:37;1.20;;;1.00;;